Time;durP1;ratioP1;P1;durP2;ratioP2;P2;SDS_P1;SDS_P2;PMS_P1;PMS_P2;Temp;Humidity;BMP_temperature;BMP_pressure;BME280_temperature;BME280_humidity;BME280_pressure;Samples;Min_cycle;Max_cycle;Signal;HPM_P1;HPM_P2
2024/04/28 00:00:37;;;;;;;7.77;5.90;;;13.80;99.90;;;;;;5416209;26;20254;-72
2024/04/28 00:03:03;;;;;;;6.30;5.70;;;13.70;99.90;;;;;;5415784;26;20220;-72
2024/04/28 00:05:28;;;;;;;5.60;5.10;;;13.70;99.90;;;;;;5416287;26;20558;-72
2024/04/28 00:07:54;;;;;;;6.27;5.60;;;13.70;99.90;;;;;;5416067;26;20298;-72
2024/04/28 00:10:19;;;;;;;5.53;5.03;;;13.70;99.90;;;;;;5415613;26;20220;-72
2024/04/28 00:12:45;;;;;;;6.43;5.50;;;13.70;99.90;;;;;;5415182;26;20561;-72
2024/04/28 00:15:11;;;;;;;6.40;5.33;;;13.60;99.90;;;;;;5415896;26;20216;-72
2024/04/28 00:17:36;;;;;;;7.30;5.80;;;13.60;99.90;;;;;;5416075;26;20229;-72
2024/04/28 00:20:03;;;;;;;5.30;4.80;;;13.50;99.90;;;;;;5415689;26;20213;-72
2024/04/28 00:22:29;;;;;;;5.77;4.87;;;13.60;99.90;;;;;;5415847;26;20255;-72
2024/04/28 00:24:54;;;;;;;5.70;5.10;;;13.50;99.90;;;;;;5415393;26;20235;-72
2024/04/28 00:27:20;;;;;;;6.57;4.97;;;13.40;99.90;;;;;;5414819;26;20656;-72
2024/04/28 00:29:46;;;;;;;5.13;4.73;;;13.50;99.90;;;;;;5415648;26;20243;-72
2024/04/28 00:32:11;;;;;;;5.63;5.13;;;13.50;99.90;;;;;;5415691;26;20220;-72
2024/04/28 00:34:37;;;;;;;6.93;4.97;;;13.40;99.90;;;;;;5415522;26;20254;-72
2024/04/28 00:37:03;;;;;;;5.07;4.57;;;13.30;99.90;;;;;;5415327;26;20220;-72
2024/04/28 00:39:28;;;;;;;4.27;3.80;;;13.30;99.90;;;;;;5414794;26;20238;-72
2024/04/28 00:41:54;;;;;;;4.40;4.00;;;13.30;99.90;;;;;;5415544;26;20317;-72
2024/04/28 00:44:20;;;;;;;4.43;4.03;;;13.20;99.90;;;;;;5415443;26;20336;-72
2024/04/28 00:46:46;;;;;;;4.73;4.33;;;13.20;99.90;;;;;;5415101;26;22112;-72
2024/04/28 00:49:14;;;;;;;4.33;3.93;;;13.10;99.90;;;;;;5414859;26;20212;-72
2024/04/28 00:51:41;;;;;;;4.70;4.30;;;12.90;99.90;;;;;;5382825;26;20265;-72
2024/04/28 00:54:08;;;;;;;4.63;4.23;;;12.90;99.90;;;;;;5415214;26;20613;-72
2024/04/28 00:56:34;;;;;;;4.13;3.73;;;12.80;99.90;;;;;;5415272;26;20632;-72
2024/04/28 00:59:00;;;;;;;4.50;4.10;;;12.70;99.90;;;;;;5415141;26;20205;-72
2024/04/28 01:01:26;;;;;;;5.00;4.50;;;12.60;99.90;;;;;;5415236;26;20239;-72
2024/04/28 01:03:53;;;;;;;4.80;4.40;;;12.60;99.90;;;;;;5415326;26;20310;-72
2024/04/28 01:06:19;;;;;;;5.93;4.60;;;12.60;99.90;;;;;;5414652;26;20275;-72
2024/04/28 01:08:45;;;;;;;4.83;4.13;;;12.50;99.90;;;;;;5415371;26;20259;-73
2024/04/28 01:11:11;;;;;;;4.73;4.27;;;12.50;99.90;;;;;;5382940;26;20256;-73
2024/04/28 01:13:37;;;;;;;5.63;4.57;;;12.50;99.90;;;;;;5383844;26;20267;-72
2024/04/28 01:16:02;;;;;;;6.43;4.90;;;12.50;99.90;;;;;;5414855;26;20759;-72
2024/04/28 01:18:29;;;;;;;6.37;5.77;;;12.50;99.90;;;;;;5415111;26;20250;-73
2024/04/28 01:20:55;;;;;;;6.30;5.67;;;12.50;99.90;;;;;;5414540;26;20278;-72
2024/04/28 01:23:21;;;;;;;6.10;5.50;;;12.50;99.90;;;;;;5413884;26;20224;-73
2024/04/28 01:25:47;;;;;;;6.30;5.63;;;12.50;99.90;;;;;;5414734;26;20301;-72
2024/04/28 01:28:12;;;;;;;6.30;5.70;;;12.50;99.90;;;;;;5414860;26;20316;-73
2024/04/28 01:30:38;;;;;;;7.20;5.73;;;12.50;99.90;;;;;;5414926;26;20645;-72
2024/04/28 01:33:04;;;;;;;6.63;5.90;;;12.50;99.90;;;;;;5414356;26;20280;-72
2024/04/28 01:35:29;;;;;;;6.00;5.50;;;12.50;99.90;;;;;;5413945;26;20228;-73
2024/04/28 01:37:55;;;;;;;7.77;5.60;;;12.50;99.90;;;;;;5413922;26;20208;-73
2024/04/28 01:40:21;;;;;;;5.80;5.30;;;12.50;99.90;;;;;;5414230;26;20254;-72
2024/04/28 01:42:46;;;;;;;6.70;5.43;;;12.50;99.90;;;;;;5414191;26;20213;-71
2024/04/28 01:45:12;;;;;;;5.10;4.70;;;12.50;99.90;;;;;;5414561;26;20257;-72
2024/04/28 01:47:37;;;;;;;5.17;4.77;;;12.50;99.90;;;;;;5414723;26;20320;-72
2024/04/28 01:50:03;;;;;;;4.83;4.37;;;12.50;99.90;;;;;;5414098;26;20236;-74
2024/04/28 01:52:29;;;;;;;5.33;4.83;;;12.50;99.90;;;;;;5414080;26;20309;-72
2024/04/28 01:54:54;;;;;;;5.40;4.50;;;12.50;99.90;;;;;;5414204;26;20266;-72
2024/04/28 01:57:20;;;;;;;4.63;4.23;;;12.50;99.90;;;;;;5414124;26;20220;-72
2024/04/28 01:59:45;;;;;;;4.37;3.93;;;12.40;99.90;;;;;;5414538;26;20220;-72
2024/04/28 02:02:11;;;;;;;5.07;4.33;;;12.50;99.90;;;;;;5415435;26;20255;-72
2024/04/28 02:04:37;;;;;;;4.27;3.97;;;12.50;99.90;;;;;;5417768;26;20223;-72
2024/04/28 02:07:02;;;;;;;4.87;4.47;;;12.50;99.90;;;;;;5417314;26;20623;-72
2024/04/28 02:09:28;;;;;;;5.07;4.67;;;12.50;99.90;;;;;;5417350;26;20247;-72
2024/04/28 02:11:53;;;;;;;4.23;3.93;;;12.60;99.90;;;;;;5417652;26;20220;-72
2024/04/28 02:14:19;;;;;;;6.97;4.37;;;12.60;99.90;;;;;;5417349;26;20259;-71
2024/04/28 02:16:45;;;;;;;5.27;4.80;;;12.60;99.90;;;;;;5417903;26;20625;-71
2024/04/28 02:19:10;;;;;;;5.43;4.93;;;12.60;99.90;;;;;;5417436;26;20212;-71
2024/04/28 02:21:36;;;;;;;5.07;4.57;;;12.60;99.90;;;;;;5417024;26;20228;-71
2024/04/28 02:24:01;;;;;;;5.20;4.70;;;12.60;99.90;;;;;;5417160;26;20550;-71
2024/04/28 02:26:27;;;;;;;5.80;4.80;;;12.60;99.90;;;;;;5417604;26;20242;-71
2024/04/28 02:28:53;;;;;;;6.23;4.23;;;12.60;99.90;;;;;;5417540;26;20708;-71
2024/04/28 02:31:18;;;;;;;4.60;4.20;;;12.60;99.90;;;;;;5416890;26;20224;-71
2024/04/28 02:33:44;;;;;;;4.80;4.30;;;12.70;99.90;;;;;;5416885;26;20228;-71
2024/04/28 02:36:10;;;;;;;4.77;4.37;;;12.70;99.90;;;;;;5417166;26;20251;-71
2024/04/28 02:38:35;;;;;;;4.70;4.30;;;12.70;99.90;;;;;;5417387;26;20220;-71
2024/04/28 02:41:01;;;;;;;5.90;4.67;;;12.70;99.90;;;;;;5416932;26;20696;-71
2024/04/28 02:43:26;;;;;;;6.27;5.37;;;12.70;99.90;;;;;;5416312;26;20236;-71
2024/04/28 02:51:03;;;;;;;6.70;5.20;;;12.80;99.90;;;;;;5417153;26;20317;-71
2024/04/28 02:53:28;;;;;;;5.00;4.60;;;12.80;99.90;;;;;;5416283;26;20243;-71
2024/04/28 02:55:54;;;;;;;5.73;4.50;;;12.70;99.90;;;;;;5417122;26;20329;-71
2024/04/28 02:58:19;;;;;;;5.87;4.60;;;12.80;99.90;;;;;;5417004;26;20259;-72
2024/04/28 03:00:45;;;;;;;4.63;4.23;;;12.80;99.90;;;;;;5417080;26;20655;-71
2024/04/28 03:03:10;;;;;;;4.77;4.37;;;12.80;99.90;;;;;;5416767;26;20275;-71
2024/04/28 03:05:36;;;;;;;4.97;4.53;;;12.80;99.90;;;;;;5417259;26;20620;-72
2024/04/28 03:08:02;;;;;;;4.80;4.37;;;12.70;99.90;;;;;;5417215;26;20268;-72
2024/04/28 03:10:27;;;;;;;5.37;4.87;;;12.70;99.90;;;;;;5416801;26;20566;-72
2024/04/28 03:12:53;;;;;;;5.30;4.20;;;12.70;99.90;;;;;;5416309;26;20739;-71
2024/04/28 03:15:18;;;;;;;4.97;4.50;;;12.70;99.90;;;;;;5416679;26;20208;-72
2024/04/28 03:17:44;;;;;;;4.60;4.20;;;12.70;99.90;;;;;;5416705;26;20224;-72
2024/04/28 03:20:10;;;;;;;4.40;4.00;;;12.70;99.90;;;;;;5416711;26;20593;-73
2024/04/28 03:22:35;;;;;;;6.70;5.23;;;12.70;99.90;;;;;;5416346;26;20754;-72
2024/04/28 03:25:01;;;;;;;4.90;4.50;;;12.70;99.90;;;;;;5416940;26;20255;-72
2024/04/28 03:27:26;;;;;;;4.97;4.43;;;12.70;99.90;;;;;;5416664;26;20261;-73
2024/04/28 03:29:53;;;;;;;6.23;4.77;;;12.70;99.90;;;;;;5416844;26;20255;-72
2024/04/28 03:32:19;;;;;;;4.93;4.53;;;12.70;99.90;;;;;;5416285;26;20597;-73
2024/04/28 03:34:44;;;;;;;4.60;4.30;;;12.70;99.90;;;;;;5416717;26;20223;-72
2024/04/28 03:37:10;;;;;;;4.17;3.83;;;12.70;99.90;;;;;;5416825;26;20204;-73
2024/04/28 03:39:36;;;;;;;6.90;4.57;;;12.70;99.90;;;;;;5416618;26;20208;-72
2024/04/28 03:42:01;;;;;;;4.27;3.87;;;12.70;99.90;;;;;;5416785;26;20264;-72
2024/04/28 03:44:27;;;;;;;4.30;3.90;;;12.60;99.90;;;;;;5416083;26;20723;-72
2024/04/28 03:46:52;;;;;;;4.50;3.80;;;12.60;99.90;;;;;;5385344;26;20228;-72
2024/04/28 03:49:18;;;;;;;4.60;4.20;;;12.60;99.90;;;;;;5416297;26;20223;-72
2024/04/28 03:51:43;;;;;;;5.97;4.20;;;12.60;99.90;;;;;;5416379;26;20208;-72
2024/04/28 03:54:09;;;;;;;4.17;3.53;;;12.70;99.90;;;;;;5416604;26;20302;-72
2024/04/28 03:56:35;;;;;;;3.97;3.43;;;12.70;99.90;;;;;;5417630;26;20303;-72
2024/04/28 03:59:01;;;;;;;3.90;3.63;;;12.70;99.90;;;;;;5416718;26;20260;-72
2024/04/28 04:01:26;;;;;;;3.60;3.40;;;12.80;99.90;;;;;;5415450;26;20232;-72
2024/04/28 04:03:52;;;;;;;4.23;3.93;;;12.80;99.90;;;;;;5416482;26;20220;-72
2024/04/28 04:06:18;;;;;;;3.93;3.63;;;12.90;99.90;;;;;;5416397;26;20320;-72
2024/04/28 04:08:43;;;;;;;3.47;3.27;;;13.00;99.90;;;;;;5416318;26;20212;-71
2024/04/28 04:11:10;;;;;;;3.47;3.27;;;13.10;99.90;;;;;;5415650;26;20266;-72
2024/04/28 04:13:36;;;;;;;3.50;3.20;;;13.10;99.90;;;;;;5416002;26;20220;-71
2024/04/28 04:16:02;;;;;;;6.27;3.57;;;13.20;99.90;;;;;;5416260;26;20258;-71
2024/04/28 04:18:27;;;;;;;4.50;3.40;;;13.40;99.90;;;;;;5416182;26;20216;-71
2024/04/28 04:20:53;;;;;;;5.10;3.23;;;13.60;99.90;;;;;;5415839;26;20251;-71
2024/04/28 04:23:18;;;;;;;2.80;2.60;;;13.70;99.90;;;;;;5415441;26;20263;-72
2024/04/28 04:25:44;;;;;;;3.37;2.90;;;13.90;99.90;;;;;;5414549;26;20204;-72
2024/04/28 04:28:10;;;;;;;3.27;3.07;;;14.10;99.90;;;;;;5416376;26;20208;-72
2024/04/28 04:30:35;;;;;;;3.73;3.43;;;14.30;99.90;;;;;;5415713;26;20549;-72
2024/04/28 04:33:01;;;;;;;4.87;3.03;;;14.40;99.90;;;;;;5415696;26;20711;-72
2024/04/28 04:35:26;;;;;;;3.20;2.90;;;14.50;99.90;;;;;;5415589;26;20212;-72
2024/04/28 04:37:52;;;;;;;3.40;3.10;;;14.60;99.90;;;;;;5416273;26;20259;-72
2024/04/28 04:40:18;;;;;;;4.03;2.83;;;14.60;99.90;;;;;;5415520;26;20267;-73
2024/04/28 04:42:43;;;;;;;3.33;3.03;;;14.70;99.90;;;;;;5415555;26;20208;-73
2024/04/28 04:45:09;;;;;;;5.77;3.60;;;14.80;99.90;;;;;;5416525;26;20251;-72
2024/04/28 04:47:34;;;;;;;6.80;3.30;;;14.90;99.90;;;;;;5415672;26;20242;-72
2024/04/28 04:50:00;;;;;;;3.00;2.80;;;14.90;99.90;;;;;;5415717;26;20321;-73
2024/04/28 04:52:25;;;;;;;3.43;2.87;;;15.00;99.90;;;;;;5415350;26;20262;-72
2024/04/28 04:54:51;;;;;;;3.10;2.90;;;15.00;99.90;;;;;;5415666;26;20569;-72
2024/04/28 04:57:17;;;;;;;2.87;2.67;;;15.00;99.90;;;;;;5415588;26;20692;-72
2024/04/28 04:59:42;;;;;;;3.03;2.80;;;15.10;99.90;;;;;;5415132;26;20797;-73
2024/04/28 05:02:08;;;;;;;7.77;3.00;;;15.10;99.90;;;;;;5415289;26;20204;-73
2024/04/28 05:04:34;;;;;;;4.57;2.43;;;15.10;99.90;;;;;;5415149;26;20584;-72
2024/04/28 05:06:59;;;;;;;3.00;2.63;;;15.10;99.90;;;;;;5415350;26;20270;-72
2024/04/28 05:09:25;;;;;;;4.90;2.70;;;15.10;99.90;;;;;;5414821;26;20224;-72
2024/04/28 05:11:51;;;;;;;3.00;2.70;;;15.20;99.90;;;;;;5415345;26;20208;-72
2024/04/28 05:14:16;;;;;;;3.37;2.70;;;15.20;99.90;;;;;;5414839;26;20491;-72
2024/04/28 05:16:42;;;;;;;4.53;3.40;;;15.30;99.90;;;;;;5415483;26;20204;-72
2024/04/28 05:19:07;;;;;;;3.07;2.77;;;15.40;99.90;;;;;;5415021;26;20204;-73
2024/04/28 05:21:33;;;;;;;3.70;2.80;;;15.50;99.90;;;;;;5414217;26;20232;-72
2024/04/28 05:24:00;;;;;;;6.93;2.70;;;15.60;99.90;;;;;;5414886;26;20293;-73
2024/04/28 05:26:26;;;;;;;3.33;2.93;;;15.70;99.90;;;;;;5415163;26;20259;-72
2024/04/28 05:28:52;;;;;;;2.80;2.50;;;15.80;99.90;;;;;;5415336;26;20208;-72
2024/04/28 05:31:17;;;;;;;3.57;2.80;;;15.80;99.90;;;;;;5414166;26;20269;-72
2024/04/28 05:33:43;;;;;;;3.73;2.50;;;15.80;99.90;;;;;;5414503;26;20289;-73
2024/04/28 05:36:08;;;;;;;3.43;2.60;;;15.90;99.90;;;;;;5414834;26;20205;-73
2024/04/28 05:38:34;;;;;;;3.90;2.47;;;15.90;99.90;;;;;;5381028;26;20750;-73
2024/04/28 05:41:00;;;;;;;2.80;2.60;;;16.00;99.90;;;;;;5382340;26;20309;-73
2024/04/28 05:43:25;;;;;;;4.10;2.90;;;16.10;99.90;;;;;;5381341;26;20636;-73
2024/04/28 05:45:52;;;;;;;3.00;2.70;;;16.10;99.90;;;;;;5382517;26;20209;-73
2024/04/28 05:48:17;;;;;;;2.90;2.70;;;16.20;99.90;;;;;;5393339;26;20253;-72
2024/04/28 05:50:43;;;;;;;4.33;2.80;;;16.20;99.90;;;;;;5417946;26;20369;-73
2024/04/28 05:53:09;;;;;;;3.47;3.17;;;16.20;99.90;;;;;;5417795;26;20216;-72
2024/04/28 05:55:34;;;;;;;3.30;2.90;;;16.20;99.90;;;;;;5417823;26;20321;-74
2024/04/28 05:58:00;;;;;;;5.07;2.43;;;16.20;99.90;;;;;;5418129;26;20279;-74
2024/04/28 06:00:28;;;;;;;3.00;2.73;;;16.10;99.90;;;;;;5385950;26;20245;-72
2024/04/28 06:02:58;;;;;;;3.33;2.40;;;16.10;99.90;;;;;;5417618;26;20216;-72
2024/04/28 06:05:24;;;;;;;2.47;2.37;;;16.00;99.90;;;;;;5417703;26;20256;-72
2024/04/28 06:07:50;;;;;;;3.07;2.73;;;16.00;99.90;;;;;;5417417;26;20220;-72
2024/04/28 06:10:15;;;;;;;2.60;2.40;;;15.90;99.90;;;;;;5417034;26;20653;-72
2024/04/28 06:12:41;;;;;;;4.13;2.63;;;15.90;99.90;;;;;;5414967;26;20272;-72
2024/04/28 06:15:07;;;;;;;2.60;2.40;;;15.90;99.90;;;;;;5417551;26;20280;-71
2024/04/28 06:17:32;;;;;;;2.73;2.53;;;15.90;99.90;;;;;;5385976;26;20251;-72
2024/04/28 06:19:58;;;;;;;2.37;2.20;;;16.00;99.90;;;;;;5417396;26;20275;-71
2024/04/28 06:22:24;;;;;;;2.93;2.63;;;16.00;99.90;;;;;;5385816;26;20258;-72
2024/04/28 06:24:52;;;;;;;2.83;2.40;;;16.10;99.90;;;;;;5417577;26;20266;-71
2024/04/28 06:27:18;;;;;;;2.90;2.70;;;16.10;99.90;;;;;;5417114;26;20261;-72
2024/04/28 06:29:43;;;;;;;2.53;2.33;;;16.00;99.90;;;;;;5417135;26;20570;-73
2024/04/28 06:32:09;;;;;;;3.80;2.53;;;16.00;99.90;;;;;;5417437;26;20212;-72
2024/04/28 06:34:34;;;;;;;2.63;2.43;;;16.10;99.90;;;;;;5417305;26;20670;-73
2024/04/28 06:37:00;;;;;;;2.97;2.73;;;16.20;99.90;;;;;;5416969;26;20204;-72
2024/04/28 06:39:26;;;;;;;3.37;2.50;;;16.40;99.90;;;;;;5417001;26;20228;-73
2024/04/28 06:41:51;;;;;;;2.17;2.03;;;16.70;99.90;;;;;;5417115;26;20342;-73
2024/04/28 06:44:17;;;;;;;5.20;2.60;;;16.80;99.90;;;;;;5416950;26;20313;-73
2024/04/28 06:46:42;;;;;;;4.47;2.10;;;16.80;99.90;;;;;;5417088;26;20213;-73
2024/04/28 06:49:08;;;;;;;2.87;2.10;;;16.70;99.90;;;;;;5415718;26;20397;-73
2024/04/28 06:51:34;;;;;;;2.70;2.10;;;16.70;99.90;;;;;;5415106;26;20587;-72
2024/04/28 06:53:59;;;;;;;3.07;2.53;;;16.60;99.90;;;;;;5416979;26;20224;-73
2024/04/28 06:56:25;;;;;;;4.30;2.43;;;16.70;99.90;;;;;;5416645;26;20317;-73
2024/04/28 06:58:51;;;;;;;4.10;2.20;;;16.90;99.90;;;;;;5417056;26;20294;-72
2024/04/28 07:01:20;;;;;;;3.50;2.13;;;17.30;99.90;;;;;;5416973;26;20243;-73
2024/04/28 07:03:46;;;;;;;2.13;1.90;;;17.50;99.90;;;;;;5416608;26;20229;-72
2024/04/28 07:06:11;;;;;;;2.20;2.00;;;17.60;99.90;;;;;;5416931;26;20743;-72
2024/04/28 07:08:37;;;;;;;2.20;2.00;;;17.50;99.90;;;;;;5416828;26;20220;-72
2024/04/28 07:11:03;;;;;;;2.07;1.97;;;17.40;99.90;;;;;;5417012;26;20688;-71
2024/04/28 07:13:29;;;;;;;3.33;1.80;;;17.30;99.90;;;;;;5416301;26;20224;-72
2024/04/28 07:15:55;;;;;;;2.17;1.90;;;17.20;99.90;;;;;;5416939;26;20208;-72
2024/04/28 07:18:20;;;;;;;2.10;1.90;;;17.30;99.90;;;;;;5416242;26;20274;-73
2024/04/28 07:20:46;;;;;;;3.67;1.87;;;17.50;99.90;;;;;;5416203;26;20220;-72
2024/04/28 07:23:12;;;;;;;1.90;1.80;;;17.50;99.90;;;;;;5416253;26;20220;-71
2024/04/28 07:25:37;;;;;;;2.57;1.90;;;17.30;99.90;;;;;;5416505;26;20571;-72
2024/04/28 07:28:03;;;;;;;2.13;1.80;;;17.20;99.90;;;;;;5416415;26;20220;-71
2024/04/28 07:30:29;;;;;;;2.00;1.90;;;17.20;99.90;;;;;;5416098;26;20279;-72
2024/04/28 07:32:54;;;;;;;2.13;1.87;;;17.20;99.90;;;;;;5416171;26;20212;-72
2024/04/28 07:35:20;;;;;;;1.90;1.80;;;17.40;99.90;;;;;;5416635;26;20212;-72
2024/04/28 07:37:45;;;;;;;2.00;1.80;;;17.60;99.90;;;;;;5417094;26;20321;-72
2024/04/28 07:40:11;;;;;;;3.83;1.80;;;17.90;99.90;;;;;;5416041;26;20224;-74
2024/04/28 07:42:37;;;;;;;3.47;1.70;;;18.30;99.90;;;;;;5415592;26;20254;-72
2024/04/28 07:45:02;;;;;;;2.73;2.00;;;18.50;99.90;;;;;;5416067;26;20591;-73
2024/04/28 07:47:28;;;;;;;2.33;1.80;;;18.70;99.90;;;;;;5415114;26;20262;-73
2024/04/28 07:49:53;;;;;;;2.30;1.77;;;18.90;99.90;;;;;;5414770;26;20718;-72
2024/04/28 07:52:19;;;;;;;1.70;1.60;;;19.40;99.90;;;;;;5383791;26;20220;-73
2024/04/28 07:54:46;;;;;;;1.80;1.70;;;19.90;99.90;;;;;;5414035;26;20332;-72
2024/04/28 07:57:11;;;;;;;2.55;1.60;;;20.10;99.90;;;;;;5414062;26;20478;-73
2024/04/28 07:59:37;;;;;;;1.73;1.63;;;19.80;99.40;;;;;;5415046;26;20250;-73
2024/04/28 08:02:02;;;;;;;3.57;1.80;;;19.60;99.90;;;;;;5416037;26;20735;-74
2024/04/28 08:04:28;;;;;;;1.85;1.75;;;19.80;99.90;;;;;;5416277;26;20274;-73
2024/04/28 08:06:55;;;;;;;1.85;1.67;;;20.00;98.00;;;;;;5415778;26;20270;-73
2024/04/28 08:09:21;;;;;;;1.40;1.40;;;20.00;99.40;;;;;;5415677;26;20212;-73
2024/04/28 08:11:46;;;;;;;1.63;1.52;;;20.20;98.80;;;;;;5415467;26;20537;-73
2024/04/28 08:14:12;;;;;;;2.78;2.22;;;20.50;98.20;;;;;;5415600;26;20220;-73
2024/04/28 08:16:37;;;;;;;1.98;1.85;;;20.70;96.80;;;;;;5414747;26;20749;-73
2024/04/28 08:19:03;;;;;;;2.65;1.60;;;20.80;96.30;;;;;;5415442;26;20262;-73
2024/04/28 08:21:29;;;;;;;1.95;1.75;;;20.80;97.40;;;;;;5415402;26;20250;-73
2024/04/28 08:23:54;;;;;;;1.60;1.50;;;20.80;93.90;;;;;;5415430;26;20377;-74
2024/04/28 08:26:20;;;;;;;2.13;1.55;;;20.80;94.00;;;;;;5415378;26;20742;-73
2024/04/28 08:28:45;;;;;;;1.70;1.60;;;20.70;94.40;;;;;;5415454;26;20279;-74
2024/04/28 08:31:11;;;;;;;2.08;1.65;;;20.90;96.20;;;;;;5415551;26;20242;-73
2024/04/28 08:33:37;;;;;;;1.50;1.40;;;21.00;93.60;;;;;;5415444;26;20224;-73
2024/04/28 08:36:02;;;;;;;1.40;1.30;;;21.10;93.00;;;;;;5415397;26;20310;-74
2024/04/28 08:38:28;;;;;;;1.40;1.40;;;21.10;89.70;;;;;;5415368;26;20224;-73
2024/04/28 08:40:54;;;;;;;1.95;1.50;;;21.10;88.20;;;;;;5415082;26;20208;-73
2024/04/28 08:43:20;;;;;;;1.60;1.50;;;21.10;88.00;;;;;;5415018;26;20212;-74
2024/04/28 08:45:47;;;;;;;1.42;1.33;;;21.10;88.90;;;;;;5414921;26;20224;-74
2024/04/28 08:48:13;;;;;;;1.40;1.35;;;21.10;90.30;;;;;;5415501;26;20232;-73
2024/04/28 08:50:41;;;;;;;2.28;1.73;;;21.00;84.60;;;;;;5415083;26;20262;-73
2024/04/28 08:53:09;;;;;;;3.30;1.60;;;20.90;82.80;;;;;;5414811;26;20224;-74
2024/04/28 08:55:37;;;;;;;1.63;1.48;;;20.90;84.80;;;;;;5414472;26;20219;-74
2024/04/28 08:58:03;;;;;;;2.05;1.63;;;21.00;85.60;;;;;;5415063;26;20212;-73
2024/04/28 09:00:28;;;;;;;1.75;1.50;;;21.00;81.20;;;;;;5415109;26;20604;-73
2024/04/28 09:02:57;;;;;;;1.95;1.40;;;21.10;87.80;;;;;;5414475;26;20715;-74
2024/04/28 09:05:23;;;;;;;1.60;1.50;;;21.50;85.70;;;;;;5415012;26;20336;-74
2024/04/28 09:07:54;;;;;;;1.60;1.30;;;21.90;84.60;;;;;;5414756;26;20212;-74
2024/04/28 09:10:19;;;;;;;1.30;1.30;;;22.20;76.70;;;;;;5414748;26;20486;-73
2024/04/28 09:12:46;;;;;;;1.30;1.30;;;22.00;74.30;;;;;;5413339;26;20591;-73
2024/04/28 09:15:11;;;;;;;1.75;1.52;;;21.60;73.60;;;;;;5414333;26;20263;-74
2024/04/28 09:17:46;;;;;;;2.05;1.88;;;21.50;79.00;;;;;;5414701;26;20263;-73
2024/04/28 09:20:19;;;;;;;1.50;1.40;;;21.50;75.50;;;;;;5414969;26;20271;-73
2024/04/28 09:22:45;;;;;;;1.88;1.77;;;21.60;80.80;;;;;;5414308;26;20224;-74
2024/04/28 09:25:10;;;;;;;1.40;1.40;;;21.70;74.40;;;;;;5414742;26;20272;-73
2024/04/28 09:27:36;;;;;;;1.42;1.42;;;21.90;73.10;;;;;;5414654;26;20316;-73
2024/04/28 09:30:03;;;;;;;1.75;1.65;;;22.00;74.10;;;;;;5414322;26;20207;-73
2024/04/28 09:32:31;;;;;;;1.60;1.50;;;22.20;77.90;;;;;;5413925;26;20337;-73
2024/04/28 09:35:05;;;;;;;1.60;1.50;;;22.30;72.70;;;;;;5414617;26;20228;-73
2024/04/28 09:37:33;;;;;;;3.65;1.40;;;22.50;74.10;;;;;;5414266;26;20224;-73
2024/04/28 09:40:04;;;;;;;2.15;1.45;;;22.60;74.00;;;;;;5414087;26;20212;-73
2024/04/28 09:42:30;;;;;;;1.60;1.50;;;22.90;73.00;;;;;;5413988;26;20216;-72
2024/04/28 09:44:57;;;;;;;1.52;1.42;;;23.10;72.40;;;;;;5413871;26;20283;-72
2024/04/28 09:47:23;;;;;;;3.10;1.80;;;22.90;70.30;;;;;;5414076;26;20268;-72
2024/04/28 09:49:50;;;;;;;2.60;1.70;;;22.60;71.30;;;;;;5413596;26;20342;-72
2024/04/28 09:52:19;;;;;;;3.95;1.67;;;22.20;72.50;;;;;;5414304;26;20539;-73
2024/04/28 09:54:46;;;;;;;3.70;1.63;;;21.70;71.80;;;;;;5413696;26;20595;-71
2024/04/28 09:57:14;;;;;;;1.60;1.50;;;21.20;72.70;;;;;;5414242;26;20295;-72
2024/04/28 09:59:41;;;;;;;1.77;1.67;;;20.80;70.90;;;;;;5413787;26;20346;-72
2024/04/28 10:02:10;;;;;;;1.60;1.50;;;20.80;74.60;;;;;;5414330;26;20612;-72
2024/04/28 10:04:39;;;;;;;1.70;1.50;;;20.90;72.30;;;;;;5414077;26;20224;-73
2024/04/28 10:07:08;;;;;;;2.00;1.60;;;21.10;71.30;;;;;;5413885;26;20270;-71
2024/04/28 10:09:36;;;;;;;1.95;1.50;;;21.50;76.00;;;;;;5413328;26;20212;-73
2024/04/28 10:12:04;;;;;;;3.97;2.08;;;21.70;70.50;;;;;;5382203;26;20695;-73
2024/04/28 10:14:32;;;;;;;1.50;1.40;;;21.30;66.80;;;;;;5413497;26;20240;-73
2024/04/28 10:16:57;;;;;;;1.85;1.60;;;21.00;73.90;;;;;;5414018;26;20213;-74
2024/04/28 10:19:30;;;;;;;2.22;1.60;;;21.30;74.20;;;;;;5413688;26;20263;-73
2024/04/28 10:22:16;;;;;;;1.60;1.50;;;21.20;71.30;;;;;;5413468;26;20267;-73
2024/04/28 10:24:51;;;;;;;1.63;1.52;;;20.80;69.00;;;;;;5416415;26;20228;-74
2024/04/28 10:27:25;;;;;;;1.60;1.50;;;20.70;73.30;;;;;;5417306;26;20259;-73
2024/04/28 10:29:51;;;;;;;1.60;1.50;;;20.70;73.10;;;;;;5416287;26;20558;-73
2024/04/28 10:32:27;;;;;;;1.65;1.55;;;20.60;72.90;;;;;;5417061;26;20264;-74
2024/04/28 10:34:53;;;;;;;1.70;1.60;;;20.50;74.10;;;;;;5416176;26;20579;-73
2024/04/28 10:37:19;;;;;;;1.70;1.60;;;20.40;73.10;;;;;;5416378;26;20227;-73
2024/04/28 10:39:46;;;;;;;1.70;1.60;;;20.50;76.70;;;;;;5416877;26;20591;-74
2024/04/28 10:42:12;;;;;;;1.65;1.55;;;20.50;76.40;;;;;;5417253;26;20205;-73
2024/04/28 10:44:37;;;;;;;1.70;1.60;;;20.60;74.10;;;;;;5416759;26;20248;-73
2024/04/28 10:47:03;;;;;;;1.88;1.75;;;20.70;77.70;;;;;;5417506;26;20251;-74
2024/04/28 10:49:30;;;;;;;1.40;1.40;;;20.80;74.60;;;;;;5417176;26;20205;-73
2024/04/28 10:51:56;;;;;;;1.83;1.60;;;20.90;77.20;;;;;;5416649;26;20361;-73
2024/04/28 10:54:22;;;;;;;1.60;1.50;;;21.20;74.60;;;;;;5416867;26;20224;-73
2024/04/28 10:56:47;;;;;;;1.65;1.55;;;21.30;75.20;;;;;;5417065;26;20216;-73
2024/04/28 10:59:13;;;;;;;3.40;1.60;;;21.50;73.20;;;;;;5417208;26;20267;-74
2024/04/28 11:01:40;;;;;;;1.80;1.70;;;21.30;70.60;;;;;;5415534;26;20358;-73
2024/04/28 11:04:06;;;;;;;2.67;1.70;;;21.30;71.10;;;;;;5417220;26;20236;-74
2024/04/28 11:06:32;;;;;;;1.90;1.50;;;21.20;73.20;;;;;;5417045;26;20212;-74
2024/04/28 11:08:58;;;;;;;2.67;1.80;;;20.90;71.50;;;;;;5416912;26;20541;-73
2024/04/28 11:11:24;;;;;;;1.70;1.60;;;20.90;76.60;;;;;;5417298;26;20540;-74
2024/04/28 11:13:50;;;;;;;1.60;1.50;;;21.10;72.70;;;;;;5416564;26;20592;-74
2024/04/28 11:16:16;;;;;;;3.33;1.80;;;21.10;71.90;;;;;;5385307;26;20303;-73
2024/04/28 11:18:42;;;;;;;1.58;1.50;;;21.00;69.90;;;;;;5416333;26;20220;-73
2024/04/28 11:21:07;;;;;;;1.80;1.70;;;20.80;70.20;;;;;;5416152;26;20754;-74
2024/04/28 11:23:34;;;;;;;1.73;1.60;;;20.70;69.70;;;;;;5416148;26;20224;-75
2024/04/28 11:26:00;;;;;;;1.67;1.58;;;20.60;71.30;;;;;;5416528;26;20601;-74
2024/04/28 11:28:28;;;;;;;1.63;1.52;;;20.50;71.10;;;;;;5416722;26;20204;-74
2024/04/28 11:30:57;;;;;;;1.70;1.60;;;20.50;73.00;;;;;;5416730;26;20713;-73
2024/04/28 11:33:23;;;;;;;1.80;1.67;;;20.60;69.80;;;;;;5416522;26;20224;-74
2024/04/28 11:35:50;;;;;;;1.80;1.70;;;20.60;71.70;;;;;;5415212;26;20224;-74
2024/04/28 11:38:15;;;;;;;2.85;1.70;;;20.70;71.60;;;;;;5416699;26;20204;-74
2024/04/28 11:40:42;;;;;;;1.70;1.60;;;20.70;71.20;;;;;;5416049;26;20254;-74
2024/04/28 11:43:08;;;;;;;1.80;1.70;;;20.80;71.40;;;;;;5415636;26;20259;-73
2024/04/28 11:45:34;;;;;;;1.60;1.50;;;20.70;72.90;;;;;;5416605;26;20212;-74
2024/04/28 11:48:00;;;;;;;2.00;1.80;;;20.50;72.80;;;;;;5416038;26;20212;-73
2024/04/28 11:50:26;;;;;;;3.03;1.67;;;20.30;71.10;;;;;;5416181;26;20224;-72
2024/04/28 11:52:51;;;;;;;1.63;1.52;;;20.10;74.20;;;;;;5416662;26;20768;-73
2024/04/28 11:55:17;;;;;;;1.88;1.77;;;20.00;74.90;;;;;;5417083;26;20216;-73
2024/04/28 11:57:43;;;;;;;2.40;1.75;;;19.90;74.90;;;;;;5417465;26;20299;-73
2024/04/28 12:00:10;;;;;;;1.80;1.70;;;19.90;76.30;;;;;;5416759;26;20337;-73
2024/04/28 12:02:35;;;;;;;1.75;1.63;;;19.90;77.00;;;;;;5416537;26;20220;-73
2024/04/28 12:05:01;;;;;;;1.70;1.60;;;20.10;78.70;;;;;;5415955;26;20224;-73
2024/04/28 12:07:28;;;;;;;1.60;1.50;;;20.20;73.10;;;;;;5416060;26;20212;-72
2024/04/28 12:09:55;;;;;;;2.80;1.65;;;20.10;73.10;;;;;;5415799;26;20389;-73
2024/04/28 12:12:21;;;;;;;1.75;1.65;;;20.00;75.20;;;;;;5416284;26;20216;-74
2024/04/28 12:14:46;;;;;;;1.65;1.55;;;19.90;74.30;;;;;;5416013;26;20271;-73
2024/04/28 12:17:12;;;;;;;1.98;1.75;;;19.80;78.00;;;;;;5416041;26;20259;-73
2024/04/28 12:19:38;;;;;;;2.67;1.73;;;19.70;81.10;;;;;;5415278;26;20221;-73
2024/04/28 12:22:03;;;;;;;1.70;1.60;;;19.60;75.00;;;;;;5415555;26;20250;-73
2024/04/28 12:24:29;;;;;;;2.28;1.80;;;19.50;77.10;;;;;;5415974;26;20220;-73
2024/04/28 12:26:54;;;;;;;1.77;1.67;;;19.40;76.60;;;;;;5415812;26;20730;-73
2024/04/28 12:29:20;;;;;;;1.97;1.70;;;19.30;73.90;;;;;;5415249;26;20556;-73
2024/04/28 12:31:46;;;;;;;2.57;1.87;;;19.20;74.20;;;;;;5415405;26;20626;-73
2024/04/28 12:34:11;;;;;;;1.60;1.50;;;19.20;76.60;;;;;;5415385;26;20620;-73
2024/04/28 12:36:37;;;;;;;1.60;1.50;;;19.20;76.90;;;;;;5415672;26;20684;-74
2024/04/28 12:39:03;;;;;;;1.70;1.60;;;19.30;78.10;;;;;;5415632;26;20289;-73
2024/04/28 12:41:28;;;;;;;1.87;1.73;;;19.40;76.10;;;;;;5415168;26;20212;-72
2024/04/28 12:43:54;;;;;;;2.00;1.90;;;19.30;77.90;;;;;;5415387;26;20224;-72
2024/04/28 12:46:19;;;;;;;1.80;1.60;;;19.20;80.60;;;;;;5414194;26;20212;-73